createdAt,value
2022-09-17T00:01:31.910Z,15.75
2022-09-17T00:04:04.493Z,15.64
2022-09-17T00:06:36.476Z,14.05
2022-09-17T00:09:07.650Z,13.04
2022-09-17T00:11:37.971Z,13.90
2022-09-17T00:14:07.857Z,14.77
2022-09-17T00:16:38.422Z,15.20
2022-09-17T00:19:10.329Z,14.96
2022-09-17T00:21:38.280Z,13.52
2022-09-17T00:24:07.288Z,12.56
2022-09-17T00:26:36.164Z,13.46
2022-09-17T00:29:05.388Z,14.35
2022-09-17T00:31:34.650Z,14.95
2022-09-17T00:34:04.586Z,15.41
2022-09-17T00:36:38.905Z,15.27
2022-09-17T00:39:11.903Z,13.85
2022-09-17T00:41:39.836Z,12.55
2022-09-17T00:44:39.835Z,12.11
2022-09-17T00:47:32.536Z,13.64
2022-09-17T00:50:15.426Z,14.70
2022-09-17T00:52:54.871Z,15.19
2022-09-17T00:55:36.989Z,15.50
2022-09-17T00:58:08.327Z,15.26
2022-09-17T01:00:37.366Z,13.83
2022-09-17T01:03:05.451Z,12.94
2022-09-17T01:05:45.857Z,13.87
2022-09-17T01:08:40.877Z,14.88
2022-09-17T01:11:34.818Z,15.32
2022-09-17T01:14:24.691Z,14.89
2022-09-17T01:17:07.847Z,13.07
2022-09-17T01:20:00.375Z,12.13
2022-09-17T01:22:35.042Z,13.22
2022-09-17T01:25:25.145Z,14.00
2022-09-17T01:28:08.241Z,14.53
2022-09-17T01:31:05.191Z,14.96
2022-09-17T01:33:41.575Z,15.25
2022-09-17T01:36:46.355Z,15.56
2022-09-17T01:39:48.631Z,15.21
2022-09-17T01:42:36.043Z,13.50
2022-09-17T01:45:17.070Z,12.80
2022-09-17T01:47:50.474Z,14.06
2022-09-17T01:50:24.389Z,14.93
2022-09-17T01:52:55.780Z,14.86
2022-09-17T01:55:32.698Z,13.51
2022-09-17T01:58:07.413Z,12.62
2022-09-17T02:00:38.971Z,13.69
2022-09-17T02:03:13.367Z,14.58
2022-09-17T02:05:50.225Z,15.05
2022-09-17T02:08:26.343Z,15.40
2022-09-17T02:11:02.561Z,15.73
2022-09-17T02:13:44.253Z,15.94
2022-09-17T02:16:18.121Z,15.55
2022-09-17T02:19:16.839Z,14.19
2022-09-17T02:22:10.859Z,13.43
2022-09-17T02:25:05.615Z,14.72
2022-09-17T02:27:39.628Z,15.59
2022-09-17T02:30:08.004Z,15.98
2022-09-17T02:32:35.903Z,16.23
2022-09-17T02:35:04.699Z,16.11
2022-09-17T02:37:33.845Z,14.83
2022-09-17T02:40:02.641Z,13.90
2022-09-17T02:42:56.989Z,14.71
2022-09-17T02:45:36.779Z,15.75
2022-09-17T02:48:21.372Z,16.26
2022-09-17T02:50:57.944Z,16.20
2022-09-17T02:53:45.917Z,14.83
2022-09-17T02:56:39.979Z,13.56
2022-09-17T02:59:32.950Z,13.30
2022-09-17T03:02:13.687Z,14.86
2022-09-17T03:04:42.696Z,15.86
2022-09-17T03:07:12.229Z,16.34
2022-09-17T03:09:41.920Z,16.25
2022-09-17T03:12:11.780Z,14.88
2022-09-17T03:14:39.960Z,13.55
2022-09-17T03:17:08.047Z,13.01
2022-09-17T03:19:35.888Z,14.25
2022-09-17T03:22:03.735Z,15.36
2022-09-17T03:24:31.636Z,16.00
2022-09-17T03:26:59.565Z,16.01
2022-09-17T03:29:27.429Z,14.66
2022-09-17T03:31:55.654Z,13.64
2022-09-17T03:34:23.989Z,14.39
2022-09-17T03:36:51.925Z,15.20
2022-09-17T03:39:19.929Z,15.66
2022-09-17T03:41:47.818Z,15.75
2022-09-17T03:44:15.683Z,14.47
2022-09-17T03:46:43.655Z,13.58
2022-09-17T03:49:11.787Z,14.42
2022-09-17T03:51:39.638Z,15.23
2022-09-17T03:54:07.932Z,15.74
2022-09-17T03:56:35.772Z,15.93
2022-09-17T03:59:03.715Z,15.53
2022-09-17T04:01:31.681Z,14.19
2022-09-17T04:03:59.833Z,13.41
2022-09-17T04:06:28.166Z,14.24
2022-09-17T04:08:57.061Z,14.83
2022-09-17T04:11:25.075Z,15.36
2022-09-17T04:13:52.976Z,15.64
2022-09-17T04:16:20.961Z,15.77
2022-09-17T04:18:48.923Z,16.04
2022-09-17T04:21:16.917Z,15.34
2022-09-17T04:23:44.802Z,13.80
2022-09-17T04:26:12.840Z,13.12
2022-09-17T04:28:40.674Z,14.18
2022-09-17T04:31:08.649Z,14.98
2022-09-17T04:33:37.674Z,15.55
2022-09-17T04:36:05.600Z,15.82
2022-09-17T04:38:33.672Z,16.11
2022-09-17T04:41:01.534Z,16.09
2022-09-17T04:43:29.547Z,14.87
2022-09-17T04:45:57.606Z,13.97
2022-09-17T04:48:25.617Z,14.81
2022-09-17T04:50:55.643Z,15.71
2022-09-17T04:53:23.467Z,16.19
2022-09-17T04:55:51.456Z,16.16
2022-09-17T04:58:19.330Z,14.95
2022-09-17T05:00:47.307Z,13.76
2022-09-17T05:03:15.206Z,13.32
2022-09-17T05:05:43.046Z,14.50
2022-09-17T05:08:11.914Z,15.59
2022-09-17T05:10:39.932Z,16.22
2022-09-17T05:13:07.790Z,16.38
2022-09-17T05:15:35.656Z,15.23
2022-09-17T05:18:03.865Z,13.98
2022-09-17T05:20:31.800Z,13.49
2022-09-17T05:22:59.733Z,14.70
2022-09-17T05:25:27.626Z,15.80
2022-09-17T05:27:56.453Z,16.48
2022-09-17T05:30:24.356Z,16.62
2022-09-17T05:33:03.265Z,15.45
2022-09-17T05:35:31.971Z,14.21
2022-09-17T05:38:01.959Z,13.86
2022-09-17T05:40:31.476Z,15.17
2022-09-17T05:43:01.287Z,16.22
2022-09-17T05:45:30.715Z,16.83
2022-09-17T05:48:00.175Z,16.85
2022-09-17T05:50:30.326Z,15.59
2022-09-17T05:53:05.321Z,14.32
2022-09-17T05:55:35.331Z,13.83
2022-09-17T05:58:14.852Z,15.05
2022-09-17T06:00:43.711Z,16.38
2022-09-17T06:03:13.801Z,16.19
2022-09-17T06:05:42.362Z,14.74
2022-09-17T06:08:10.601Z,14.22
2022-09-17T06:10:39.438Z,15.27
2022-09-17T06:13:07.342Z,16.31
2022-09-17T06:15:35.406Z,16.49
2022-09-17T06:18:03.388Z,15.11
2022-09-17T06:20:31.420Z,14.41
2022-09-17T06:22:59.323Z,15.46
2022-09-17T06:25:29.606Z,16.29
2022-09-17T06:27:57.546Z,15.79
2022-09-17T06:30:25.602Z,14.59
2022-09-17T06:32:53.542Z,15.35
2022-09-17T06:35:21.392Z,16.32
2022-09-17T06:37:49.321Z,16.30
2022-09-17T06:40:17.829Z,15.09
2022-09-17T06:42:45.811Z,15.81
2022-09-17T06:45:16.685Z,16.53
2022-09-17T06:47:44.891Z,17.12
2022-09-17T06:50:12.969Z,16.00
2022-09-17T06:52:54.544Z,15.08
2022-09-17T06:55:22.545Z,16.01
2022-09-17T06:57:50.379Z,16.96
2022-09-17T07:00:18.352Z,16.42
2022-09-17T07:02:56.735Z,15.09
2022-09-17T07:05:26.469Z,14.90
2022-09-17T07:07:54.704Z,16.21
2022-09-17T07:10:27.102Z,16.93
2022-09-17T07:12:55.921Z,17.14
2022-09-17T07:15:23.814Z,15.99
2022-09-17T07:17:51.685Z,15.10
2022-09-17T07:20:20.002Z,16.43
2022-09-17T07:22:57.401Z,16.64
2022-09-17T07:25:29.235Z,15.33
2022-09-17T07:27:57.117Z,15.21
2022-09-17T07:30:25.030Z,15.88
2022-09-17T07:32:52.907Z,16.96
2022-09-17T07:35:20.818Z,17.27
2022-09-17T07:37:48.697Z,16.27
2022-09-17T07:40:16.663Z,15.20
2022-09-17T07:42:44.532Z,15.96
2022-09-17T07:45:12.359Z,16.82
2022-09-17T07:47:41.911Z,16.45
2022-09-17T07:50:10.107Z,15.47
2022-09-17T07:52:38.084Z,15.02
2022-09-17T07:55:07.646Z,15.98
2022-09-17T07:57:35.562Z,16.73
2022-09-17T08:00:04.211Z,15.75
2022-09-17T08:02:39.593Z,15.02
2022-09-17T08:05:07.940Z,16.14
2022-09-17T08:07:35.867Z,16.78
2022-09-17T08:10:03.935Z,15.81
2022-09-17T08:12:31.786Z,15.31
2022-09-17T08:14:59.622Z,16.65
2022-09-17T08:17:27.535Z,15.85
2022-09-17T08:19:55.467Z,14.78
2022-09-17T08:22:23.383Z,14.63
2022-09-17T08:24:51.234Z,15.97
2022-09-17T08:27:19.117Z,16.05
2022-09-17T08:29:47.027Z,15.14
2022-09-17T08:32:15.009Z,15.38
2022-09-17T08:34:42.811Z,16.70
2022-09-17T08:37:10.660Z,16.45
2022-09-17T08:39:38.503Z,15.58
2022-09-17T08:42:17.990Z,14.82
2022-09-17T08:44:49.873Z,15.61
2022-09-17T08:47:38.053Z,16.43
2022-09-17T08:50:18.241Z,15.31
2022-09-17T08:53:07.809Z,14.52
2022-09-17T08:55:47.452Z,15.70
2022-09-17T08:58:30.612Z,16.63
2022-09-17T09:01:10.788Z,15.62
2022-09-17T09:04:04.000Z,14.83
2022-09-17T09:06:41.594Z,14.27
2022-09-17T09:09:16.436Z,14.63
2022-09-17T09:11:47.349Z,16.69
2022-09-17T09:14:30.500Z,16.62
2022-09-17T09:17:01.753Z,15.61
2022-09-17T09:19:34.732Z,14.85
2022-09-17T09:22:13.941Z,14.20
2022-09-17T09:25:03.503Z,14.30
2022-09-17T09:27:38.956Z,16.22
2022-09-17T09:30:10.668Z,16.79
2022-09-17T09:32:47.657Z,15.78
2022-09-17T09:35:32.295Z,15.00
2022-09-17T09:38:22.899Z,14.48
2022-09-17T09:41:18.423Z,14.31
2022-09-17T09:44:12.447Z,16.31
2022-09-17T09:47:02.354Z,16.83
2022-09-17T09:49:56.219Z,15.62
2022-09-17T09:52:46.255Z,14.66
2022-09-17T09:55:50.535Z,13.96
2022-09-17T09:58:38.625Z,14.33
2022-09-17T10:01:17.238Z,16.59
2022-09-17T10:03:47.999Z,16.83
2022-09-17T10:06:17.501Z,15.65
2022-09-17T10:08:57.755Z,14.81
2022-09-17T10:11:33.431Z,14.19
2022-09-17T10:14:21.236Z,14.25
2022-09-17T10:16:49.727Z,16.35
2022-09-17T10:19:25.819Z,16.71
2022-09-17T10:22:14.343Z,15.70
2022-09-17T10:24:42.243Z,14.95
2022-09-17T10:27:19.974Z,14.39
2022-09-17T10:29:51.354Z,14.59
2022-09-17T10:32:22.241Z,16.28
2022-09-17T10:35:16.626Z,16.58
2022-09-17T10:37:47.527Z,15.69
2022-09-17T10:40:21.132Z,14.95
2022-09-17T10:42:51.705Z,14.41
2022-09-17T10:45:31.885Z,14.04
2022-09-17T10:48:00.564Z,13.80
2022-09-17T10:50:31.125Z,14.46
2022-09-17T10:53:16.999Z,16.32
2022-09-17T10:55:47.115Z,16.67
2022-09-17T10:58:26.732Z,15.85
2022-09-17T11:01:12.777Z,15.17
2022-09-17T11:04:05.050Z,14.86
2022-09-17T11:06:56.555Z,14.71
2022-09-17T11:09:27.149Z,14.53
2022-09-17T11:12:13.829Z,14.30
2022-09-17T11:14:53.446Z,14.02
2022-09-17T11:17:55.755Z,14.89
2022-09-17T11:21:04.835Z,16.28
2022-09-17T11:23:58.715Z,15.20
2022-09-17T11:27:20.372Z,14.36
2022-09-17T11:30:06.721Z,14.94
2022-09-17T11:32:52.627Z,16.45
2022-09-17T11:35:29.181Z,17.12
2022-09-17T11:38:15.086Z,15.99
2022-09-17T11:41:00.857Z,14.88
2022-09-17T11:43:35.047Z,14.18
2022-09-17T11:46:10.219Z,14.23
2022-09-17T11:48:48.993Z,16.04
2022-09-17T11:51:29.090Z,17.21
2022-09-17T11:54:06.933Z,16.22
2022-09-17T11:56:43.962Z,15.16
2022-09-17T11:59:25.523Z,14.55
2022-09-17T12:01:59.213Z,15.37
2022-09-17T12:04:32.905Z,16.68
2022-09-17T12:07:20.989Z,15.83
2022-09-17T12:10:21.642Z,14.86
2022-09-17T12:12:58.258Z,15.16
2022-09-17T12:15:31.170Z,16.92
2022-09-17T12:18:33.021Z,16.88
2022-09-17T12:21:05.208Z,15.52
2022-09-17T12:23:57.010Z,14.72
2022-09-17T12:26:49.543Z,14.92
2022-09-17T12:29:20.579Z,16.91
2022-09-17T12:32:29.644Z,16.89
2022-09-17T12:35:12.571Z,15.38
2022-09-17T12:37:58.444Z,14.50
2022-09-17T12:40:38.585Z,14.82
2022-09-17T12:43:29.299Z,16.71
2022-09-17T12:45:57.103Z,16.88
2022-09-17T12:48:41.347Z,15.94
2022-09-17T12:51:29.439Z,14.86
2022-09-17T12:54:15.138Z,14.80
2022-09-17T12:57:05.110Z,16.29
2022-09-17T12:59:36.451Z,16.68
2022-09-17T13:02:49.561Z,15.97
2022-09-17T13:05:36.132Z,15.07
2022-09-17T13:08:52.719Z,15.11
2022-09-17T13:11:39.024Z,17.21
2022-09-17T13:14:25.744Z,17.16
2022-09-17T13:17:28.178Z,16.26
2022-09-17T13:20:21.696Z,15.41
2022-09-17T13:24:09.700Z,14.72
2022-09-17T13:28:00.643Z,16.50
2022-09-17T13:32:00.986Z,16.96
2022-09-17T13:35:30.177Z,15.31
2022-09-17T13:38:23.656Z,16.03
2022-09-17T13:41:13.002Z,17.09
2022-09-17T13:43:46.825Z,16.21
2022-09-17T13:46:22.855Z,15.23
2022-09-17T13:48:57.259Z,14.76
2022-09-17T13:51:30.871Z,15.93
2022-09-17T13:54:03.537Z,17.01
2022-09-17T13:56:41.479Z,16.88
2022-09-17T13:59:27.578Z,15.65
2022-09-17T14:01:59.310Z,15.06
2022-09-17T14:04:36.140Z,16.26
2022-09-17T14:07:23.940Z,17.13
2022-09-17T14:10:02.434Z,16.29
2022-09-17T14:12:48.917Z,15.34
2022-09-17T14:15:39.992Z,15.24
2022-09-17T14:18:26.849Z,17.01
2022-09-17T14:21:07.119Z,17.94
2022-09-17T14:23:43.292Z,16.83
2022-09-17T14:26:19.737Z,15.97
2022-09-17T14:29:03.665Z,15.25
2022-09-17T14:31:35.932Z,16.14
2022-09-17T14:34:06.569Z,17.34
2022-09-17T14:36:39.413Z,16.66
2022-09-17T14:39:19.950Z,15.73
2022-09-17T14:41:51.055Z,14.97
2022-09-17T14:44:21.748Z,14.96
2022-09-17T14:47:18.441Z,16.77
2022-09-17T14:49:47.313Z,16.39
2022-09-17T14:52:24.840Z,15.50
2022-09-17T14:55:11.293Z,14.84
2022-09-17T14:57:39.227Z,15.68
2022-09-17T15:00:18.627Z,17.08
2022-09-17T15:02:52.159Z,17.63
2022-09-17T15:05:35.469Z,16.39
2022-09-17T15:08:38.681Z,15.38
2022-09-17T15:11:12.075Z,15.52
2022-09-17T15:13:43.054Z,17.17
2022-09-17T15:16:26.187Z,18.04
2022-09-17T15:19:01.262Z,16.99
2022-09-17T15:21:45.659Z,15.98
2022-09-17T15:24:50.432Z,15.16
2022-09-17T15:27:22.384Z,15.47
2022-09-17T15:29:55.543Z,17.25
2022-09-17T15:32:23.582Z,18.13
2022-09-17T15:35:17.507Z,16.97
2022-09-17T15:40:41.777Z,14.99
2022-09-17T15:43:13.621Z,14.92
2022-09-17T15:45:43.266Z,16.43
2022-09-17T15:48:34.510Z,17.70
2022-09-17T15:51:04.608Z,17.07
2022-09-17T15:53:35.053Z,15.85
2022-09-17T15:56:06.061Z,15.01
2022-09-17T15:58:46.891Z,15.22
2022-09-17T16:01:17.691Z,16.87
2022-09-17T16:03:46.823Z,17.47
2022-09-17T16:06:17.788Z,16.45
2022-09-17T16:08:50.002Z,15.42
2022-09-17T16:11:20.339Z,15.82
2022-09-17T16:13:49.475Z,17.25
2022-09-17T16:16:19.871Z,17.60
2022-09-17T16:18:48.956Z,16.30
2022-09-17T16:21:23.187Z,15.33
2022-09-17T16:23:54.058Z,16.25
2022-09-17T16:26:28.909Z,17.53
2022-09-17T16:29:02.832Z,16.80
2022-09-17T16:31:30.815Z,15.52
2022-09-17T16:33:58.804Z,15.14
2022-09-17T16:36:27.438Z,16.59
2022-09-17T16:38:55.346Z,17.22
2022-09-17T16:41:23.446Z,16.56
2022-09-17T16:43:51.336Z,15.58
2022-09-17T16:46:19.269Z,15.18
2022-09-17T16:48:50.216Z,16.13
2022-09-17T16:51:18.201Z,17.26
2022-09-17T16:53:46.257Z,17.62
2022-09-17T16:56:15.559Z,16.45
2022-09-17T16:58:43.451Z,15.24
2022-09-17T17:01:14.644Z,14.97
2022-09-17T17:03:42.888Z,16.31
2022-09-17T17:06:19.080Z,17.36
2022-09-17T17:08:47.657Z,17.43
2022-09-17T17:11:15.896Z,15.98
2022-09-17T17:13:44.195Z,15.23
2022-09-17T17:16:14.747Z,16.22
2022-09-17T17:18:44.398Z,17.32
2022-09-17T17:21:14.407Z,17.55
2022-09-17T17:23:47.392Z,16.37
2022-09-17T17:26:16.423Z,15.29
2022-09-17T17:28:44.498Z,15.97
2022-09-17T17:31:12.466Z,16.89
2022-09-17T17:33:40.430Z,17.64
2022-09-17T17:36:09.788Z,17.66
2022-09-17T17:38:38.757Z,16.31
2022-09-17T17:41:10.946Z,15.19
2022-09-17T17:43:39.472Z,15.13
2022-09-17T17:46:12.226Z,16.16
2022-09-17T17:48:40.153Z,16.93
2022-09-17T17:51:10.100Z,16.85
2022-09-17T17:53:42.748Z,15.78
2022-09-17T17:56:12.062Z,15.15
2022-09-17T17:58:40.998Z,16.29
2022-09-17T18:01:14.483Z,16.91
2022-09-17T18:03:43.205Z,17.21
2022-09-17T18:06:11.686Z,17.38
2022-09-17T18:08:41.848Z,16.22
2022-09-17T18:11:11.589Z,15.36
2022-09-17T18:13:40.279Z,16.29
2022-09-17T18:16:12.119Z,17.25
2022-09-17T18:18:44.919Z,17.27
2022-09-17T18:21:19.064Z,16.00
2022-09-17T18:23:47.799Z,15.27
2022-09-17T18:26:18.591Z,16.20
2022-09-17T18:28:47.153Z,17.00
2022-09-17T18:31:28.959Z,17.38
2022-09-17T18:34:02.792Z,16.71
2022-09-17T18:36:33.748Z,15.40
2022-09-17T18:41:53.527Z,16.00
2022-09-17T18:44:22.602Z,16.75
2022-09-17T18:46:51.566Z,17.11
2022-09-17T18:49:19.665Z,17.37
2022-09-17T18:51:47.949Z,16.22
2022-09-17T18:54:15.924Z,15.35
2022-09-17T18:56:43.866Z,16.23
2022-09-17T18:59:11.831Z,17.27
2022-09-17T19:01:39.800Z,17.55
2022-09-17T19:04:08.542Z,16.22
2022-09-17T19:06:39.194Z,15.37
2022-09-17T19:09:07.121Z,16.12
2022-09-17T19:11:36.438Z,16.78
2022-09-17T19:14:04.402Z,17.23
2022-09-17T19:16:32.665Z,17.62
2022-09-17T19:19:00.931Z,17.22
2022-09-17T19:21:28.865Z,15.76
2022-09-17T19:23:57.349Z,15.14
2022-09-17T19:26:27.476Z,16.05
2022-09-17T19:28:58.741Z,16.93
2022-09-17T19:31:28.120Z,17.51
2022-09-17T19:33:58.730Z,17.35
2022-09-17T19:36:27.463Z,16.00
2022-09-17T19:38:55.818Z,15.24
2022-09-17T19:41:23.870Z,16.06
2022-09-17T19:43:57.046Z,17.07
2022-09-17T19:46:26.748Z,17.06
2022-09-17T19:48:57.291Z,16.08
2022-09-17T19:51:28.469Z,15.37
2022-09-17T19:53:57.447Z,16.28
2022-09-17T19:56:27.518Z,16.90
2022-09-17T19:58:56.783Z,17.10
2022-09-17T20:01:25.049Z,16.78
2022-09-17T20:03:55.560Z,15.48
2022-09-17T20:06:24.205Z,14.96
2022-09-17T20:08:55.087Z,15.93
2022-09-17T20:11:25.350Z,16.88
2022-09-17T20:14:06.579Z,16.98
2022-09-17T20:16:37.392Z,15.53
2022-09-17T20:19:08.108Z,14.80
2022-09-17T20:21:36.182Z,15.61
2022-09-17T20:24:06.212Z,16.70
2022-09-17T20:26:35.112Z,17.19
2022-09-17T20:29:04.176Z,17.21
2022-09-17T20:31:32.714Z,15.96
2022-09-17T20:34:02.624Z,15.09
2022-09-17T20:36:33.607Z,15.66
2022-09-17T20:39:13.177Z,16.62
2022-09-17T20:41:44.659Z,16.78
2022-09-17T20:44:12.579Z,17.06
2022-09-17T20:46:40.663Z,16.72
2022-09-17T20:49:08.927Z,15.40
2022-09-17T20:51:36.811Z,15.33
2022-09-17T20:54:06.178Z,16.40
2022-09-17T20:56:35.372Z,16.79
2022-09-17T20:59:13.387Z,16.54
2022-09-17T21:01:45.506Z,15.17
2022-09-17T21:04:17.009Z,14.52
2022-09-17T21:06:46.226Z,15.41
2022-09-17T21:09:17.869Z,16.24
2022-09-17T21:11:47.812Z,16.08
2022-09-17T21:14:17.591Z,16.42
2022-09-17T21:16:46.074Z,15.11
2022-09-17T21:19:16.236Z,14.59
2022-09-17T21:21:44.821Z,15.18
2022-09-17T21:24:12.878Z,16.01
2022-09-17T21:26:40.919Z,16.28
2022-09-17T21:29:09.714Z,16.32
2022-09-17T21:31:38.806Z,16.04
2022-09-17T21:34:10.382Z,14.92
2022-09-17T21:36:40.835Z,15.02
2022-09-17T21:39:17.202Z,16.06
2022-09-17T21:41:46.092Z,16.58
2022-09-17T21:44:14.990Z,16.07
2022-09-17T21:46:43.388Z,14.81
2022-09-17T21:49:13.559Z,14.05
2022-09-17T21:51:42.822Z,15.00
2022-09-17T21:54:13.451Z,16.10
2022-09-17T21:56:41.679Z,16.39
2022-09-17T21:59:12.152Z,16.72
2022-09-17T22:01:44.075Z,16.64
2022-09-17T22:04:14.641Z,15.66
2022-09-17T22:06:44.001Z,14.84
2022-09-17T22:09:22.349Z,15.38
2022-09-17T22:11:51.298Z,16.15
2022-09-17T22:14:21.791Z,16.61
2022-09-17T22:16:57.012Z,15.55
2022-09-17T22:19:26.532Z,15.09
2022-09-17T22:21:56.125Z,15.49
2022-09-17T22:24:25.764Z,16.20
2022-09-17T22:26:57.925Z,16.59
2022-09-17T22:29:31.851Z,15.90
2022-09-17T22:31:59.752Z,14.90
2022-09-17T22:34:27.741Z,15.54
2022-09-17T22:36:55.629Z,16.03
2022-09-17T22:39:23.611Z,16.60
2022-09-17T22:41:51.513Z,15.16
2022-09-17T22:44:20.185Z,15.14
2022-09-17T22:46:51.347Z,16.06
2022-09-17T22:49:21.800Z,16.18
2022-09-17T22:51:49.698Z,16.63
2022-09-17T22:54:19.727Z,15.99
2022-09-17T22:56:49.234Z,14.55
2022-09-17T22:59:18.344Z,14.17
2022-09-17T23:01:46.946Z,15.29
2022-09-17T23:04:14.905Z,16.03
2022-09-17T23:06:43.244Z,16.60
2022-09-17T23:09:15.974Z,15.84
2022-09-17T23:11:43.855Z,14.65
2022-09-17T23:14:13.524Z,15.22
2022-09-17T23:16:51.113Z,16.03
2022-09-17T23:19:19.660Z,16.45
2022-09-17T23:21:47.602Z,16.66
2022-09-17T23:24:21.094Z,16.67
2022-09-17T23:27:20.915Z,15.24
2022-09-17T23:29:48.802Z,14.56
2022-09-17T23:33:35.746Z,15.40
2022-09-17T23:36:08.248Z,16.04
2022-09-17T23:38:36.259Z,16.53
2022-09-17T23:41:17.239Z,15.27
2022-09-17T23:43:48.178Z,14.61
2022-09-17T23:46:16.588Z,15.56
2022-09-17T23:48:45.325Z,16.41
2022-09-17T23:51:13.685Z,16.52
2022-09-17T23:53:41.688Z,14.80
2022-09-17T23:56:14.701Z,14.01
2022-09-17T23:58:42.554Z,15.01
